Terminal Aerodrome Forecast
Issued by NWS

Home | Current Version | Previous Version | Text Only | Print | Product List | Glossary On
Versions: 1 2 3 4 5 6 7 8 9 10 11 12 13 14 15 16 17 18 19 20
000
FTUS45 KLKN 251120
TAFEKO
TAF
KEKO 251120Z 2512/2612 VRB06KT P6SM VCSH SCT030 OVC040
     FM251500 28008KT P6SM OVC050
     FM252000 28010KT P6SM BKN050 BKN200=

USA.gov is the U.S. government's official web portal to all federal, state and local government web resources and services.